sensor_id;sensor_type;location;lat;lon;timestamp;P1;durP1;ratioP1;P2;durP2;ratioP2
6825;SDS011;3451;52.476;13.316;2023-11-19T00:02:25;12.80;;;8.60;;
6825;SDS011;3451;52.476;13.316;2023-11-19T00:04:51;12.10;;;7.73;;
6825;SDS011;3451;52.476;13.316;2023-11-19T00:07:17;10.50;;;7.50;;
6825;SDS011;3451;52.476;13.316;2023-11-19T00:09:46;10.37;;;7.20;;
6825;SDS011;3451;52.476;13.316;2023-11-19T00:12:12;11.83;;;7.57;;
6825;SDS011;3451;52.476;13.316;2023-11-19T00:14:39;11.67;;;7.13;;
6825;SDS011;3451;52.476;13.316;2023-11-19T00:17:05;9.80;;;7.53;;
6825;SDS011;3451;52.476;13.316;2023-11-19T00:19:31;11.57;;;7.60;;
6825;SDS011;3451;52.476;13.316;2023-11-19T00:21:58;11.73;;;7.80;;
6825;SDS011;3451;52.476;13.316;2023-11-19T00:24:29;11.67;;;7.60;;
6825;SDS011;3451;52.476;13.316;2023-11-19T00:26:55;11.03;;;7.23;;
6825;SDS011;3451;52.476;13.316;2023-11-19T00:29:22;11.90;;;7.50;;
6825;SDS011;3451;52.476;13.316;2023-11-19T00:31:48;11.57;;;7.50;;
6825;SDS011;3451;52.476;13.316;2023-11-19T00:34:15;11.37;;;7.90;;
6825;SDS011;3451;52.476;13.316;2023-11-19T00:36:41;11.80;;;7.57;;
6825;SDS011;3451;52.476;13.316;2023-11-19T00:39:08;9.80;;;6.93;;
6825;SDS011;3451;52.476;13.316;2023-11-19T00:41:34;9.93;;;7.07;;
6825;SDS011;3451;52.476;13.316;2023-11-19T00:44:00;11.23;;;6.90;;
6825;SDS011;3451;52.476;13.316;2023-11-19T00:46:26;9.20;;;6.70;;
6825;SDS011;3451;52.476;13.316;2023-11-19T00:48:54;10.27;;;6.70;;
6825;SDS011;3451;52.476;13.316;2023-11-19T00:51:21;9.70;;;7.23;;
6825;SDS011;3451;52.476;13.316;2023-11-19T00:53:47;10.93;;;6.83;;
6825;SDS011;3451;52.476;13.316;2023-11-19T00:56:13;9.00;;;6.73;;
6825;SDS011;3451;52.476;13.316;2023-11-19T00:58:40;13.30;;;7.43;;
6825;SDS011;3451;52.476;13.316;2023-11-19T01:01:06;8.77;;;6.17;;
6825;SDS011;3451;52.476;13.316;2023-11-19T01:03:33;13.70;;;6.67;;
6825;SDS011;3451;52.476;13.316;2023-11-19T01:05:59;9.73;;;6.37;;
6825;SDS011;3451;52.476;13.316;2023-11-19T01:08:27;10.30;;;7.03;;
6825;SDS011;3451;52.476;13.316;2023-11-19T01:10:53;10.43;;;6.90;;
6825;SDS011;3451;52.476;13.316;2023-11-19T01:13:19;10.37;;;6.83;;
6825;SDS011;3451;52.476;13.316;2023-11-19T01:15:46;9.27;;;6.77;;
6825;SDS011;3451;52.476;13.316;2023-11-19T01:18:13;10.67;;;6.70;;
6825;SDS011;3451;52.476;13.316;2023-11-19T01:20:39;8.00;;;6.23;;
6825;SDS011;3451;52.476;13.316;2023-11-19T01:23:06;8.43;;;6.53;;
6825;SDS011;3451;52.476;13.316;2023-11-19T01:25:32;8.60;;;6.33;;
6825;SDS011;3451;52.476;13.316;2023-11-19T01:27:58;9.37;;;6.43;;
6825;SDS011;3451;52.476;13.316;2023-11-19T01:30:25;11.23;;;6.77;;
6825;SDS011;3451;52.476;13.316;2023-11-19T01:32:52;11.57;;;6.30;;
6825;SDS011;3451;52.476;13.316;2023-11-19T01:35:18;10.17;;;6.63;;
6825;SDS011;3451;52.476;13.316;2023-11-19T01:37:45;9.97;;;6.30;;
6825;SDS011;3451;52.476;13.316;2023-11-19T01:40:11;9.57;;;6.70;;
6825;SDS011;3451;52.476;13.316;2023-11-19T01:42:38;8.73;;;6.80;;
6825;SDS011;3451;52.476;13.316;2023-11-19T01:45:06;9.20;;;6.27;;
6825;SDS011;3451;52.476;13.316;2023-11-19T01:47:36;8.90;;;6.33;;
6825;SDS011;3451;52.476;13.316;2023-11-19T01:50:03;10.83;;;6.20;;
6825;SDS011;3451;52.476;13.316;2023-11-19T01:52:33;9.07;;;6.43;;
6825;SDS011;3451;52.476;13.316;2023-11-19T01:55:00;9.03;;;6.40;;
6825;SDS011;3451;52.476;13.316;2023-11-19T01:57:27;10.03;;;6.23;;
6825;SDS011;3451;52.476;13.316;2023-11-19T01:59:53;9.00;;;6.97;;
6825;SDS011;3451;52.476;13.316;2023-11-19T02:02:20;8.40;;;6.30;;
6825;SDS011;3451;52.476;13.316;2023-11-19T02:04:50;9.43;;;6.27;;
6825;SDS011;3451;52.476;13.316;2023-11-19T02:07:17;8.97;;;6.30;;
6825;SDS011;3451;52.476;13.316;2023-11-19T02:09:44;8.93;;;6.03;;
6825;SDS011;3451;52.476;13.316;2023-11-19T02:12:10;9.37;;;6.27;;
6825;SDS011;3451;52.476;13.316;2023-11-19T02:14:39;10.07;;;6.40;;
6825;SDS011;3451;52.476;13.316;2023-11-19T02:17:06;10.73;;;6.63;;
6825;SDS011;3451;52.476;13.316;2023-11-19T02:19:32;9.10;;;6.10;;
6825;SDS011;3451;52.476;13.316;2023-11-19T02:21:59;7.67;;;6.03;;
6825;SDS011;3451;52.476;13.316;2023-11-19T02:24:27;8.20;;;6.10;;
6825;SDS011;3451;52.476;13.316;2023-11-19T02:27:02;9.30;;;6.17;;
6825;SDS011;3451;52.476;13.316;2023-11-19T02:29:31;10.13;;;5.80;;
6825;SDS011;3451;52.476;13.316;2023-11-19T02:31:58;9.70;;;6.13;;
6825;SDS011;3451;52.476;13.316;2023-11-19T02:34:24;8.83;;;6.00;;
6825;SDS011;3451;52.476;13.316;2023-11-19T02:36:51;7.90;;;5.90;;
6825;SDS011;3451;52.476;13.316;2023-11-19T02:39:17;8.03;;;5.90;;
6825;SDS011;3451;52.476;13.316;2023-11-19T02:41:47;7.97;;;5.53;;
6825;SDS011;3451;52.476;13.316;2023-11-19T02:44:17;8.53;;;5.63;;
6825;SDS011;3451;52.476;13.316;2023-11-19T02:46:43;10.43;;;5.20;;
6825;SDS011;3451;52.476;13.316;2023-11-19T02:49:09;8.47;;;5.43;;
6825;SDS011;3451;52.476;13.316;2023-11-19T02:51:36;6.70;;;5.23;;
6825;SDS011;3451;52.476;13.316;2023-11-19T02:54:02;7.37;;;5.37;;
6825;SDS011;3451;52.476;13.316;2023-11-19T02:56:29;6.80;;;5.00;;
6825;SDS011;3451;52.476;13.316;2023-11-19T02:59:00;8.77;;;4.73;;
6825;SDS011;3451;52.476;13.316;2023-11-19T03:01:34;8.37;;;5.57;;
6825;SDS011;3451;52.476;13.316;2023-11-19T03:04:02;8.03;;;4.40;;
6825;SDS011;3451;52.476;13.316;2023-11-19T03:06:29;8.10;;;5.03;;
6825;SDS011;3451;52.476;13.316;2023-11-19T03:08:56;7.00;;;4.87;;
6825;SDS011;3451;52.476;13.316;2023-11-19T03:11:22;6.50;;;4.83;;
6825;SDS011;3451;52.476;13.316;2023-11-19T03:13:48;6.37;;;4.97;;
6825;SDS011;3451;52.476;13.316;2023-11-19T03:16:15;8.60;;;4.80;;
6825;SDS011;3451;52.476;13.316;2023-11-19T03:18:42;6.00;;;4.50;;
6825;SDS011;3451;52.476;13.316;2023-11-19T03:21:09;6.67;;;4.70;;
6825;SDS011;3451;52.476;13.316;2023-11-19T03:23:36;6.90;;;4.87;;
6825;SDS011;3451;52.476;13.316;2023-11-19T03:26:02;5.63;;;4.00;;
6825;SDS011;3451;52.476;13.316;2023-11-19T03:28:31;11.23;;;4.50;;
6825;SDS011;3451;52.476;13.316;2023-11-19T03:30:57;5.20;;;4.20;;
6825;SDS011;3451;52.476;13.316;2023-11-19T03:33:24;8.90;;;5.07;;
6825;SDS011;3451;52.476;13.316;2023-11-19T03:35:52;8.63;;;4.97;;
6825;SDS011;3451;52.476;13.316;2023-11-19T03:38:18;8.43;;;4.90;;
6825;SDS011;3451;52.476;13.316;2023-11-19T03:40:44;6.90;;;4.57;;
6825;SDS011;3451;52.476;13.316;2023-11-19T03:43:11;10.17;;;5.10;;
6825;SDS011;3451;52.476;13.316;2023-11-19T03:45:39;8.50;;;4.73;;
6825;SDS011;3451;52.476;13.316;2023-11-19T03:48:05;6.83;;;4.40;;
6825;SDS011;3451;52.476;13.316;2023-11-19T03:50:31;8.43;;;5.07;;
6825;SDS011;3451;52.476;13.316;2023-11-19T03:52:58;7.90;;;4.70;;
6825;SDS011;3451;52.476;13.316;2023-11-19T03:55:24;8.53;;;4.77;;
6825;SDS011;3451;52.476;13.316;2023-11-19T03:57:50;6.60;;;4.80;;
6825;SDS011;3451;52.476;13.316;2023-11-19T04:00:17;9.10;;;5.00;;
6825;SDS011;3451;52.476;13.316;2023-11-19T04:02:43;6.27;;;5.13;;
6825;SDS011;3451;52.476;13.316;2023-11-19T04:05:09;10.13;;;5.23;;
6825;SDS011;3451;52.476;13.316;2023-11-19T04:07:36;7.80;;;5.10;;
6825;SDS011;3451;52.476;13.316;2023-11-19T04:10:03;7.60;;;5.23;;
6825;SDS011;3451;52.476;13.316;2023-11-19T04:12:30;9.00;;;5.73;;
6825;SDS011;3451;52.476;13.316;2023-11-19T04:14:56;7.17;;;5.00;;
6825;SDS011;3451;52.476;13.316;2023-11-19T04:17:25;8.00;;;5.40;;
6825;SDS011;3451;52.476;13.316;2023-11-19T04:19:52;6.77;;;5.00;;
6825;SDS011;3451;52.476;13.316;2023-11-19T04:22:18;8.10;;;5.50;;
6825;SDS011;3451;52.476;13.316;2023-11-19T04:24:44;7.50;;;5.47;;
6825;SDS011;3451;52.476;13.316;2023-11-19T04:27:12;8.70;;;5.23;;
6825;SDS011;3451;52.476;13.316;2023-11-19T04:29:38;8.87;;;5.50;;
6825;SDS011;3451;52.476;13.316;2023-11-19T04:32:05;6.17;;;4.93;;
6825;SDS011;3451;52.476;13.316;2023-11-19T04:34:31;6.90;;;5.17;;
6825;SDS011;3451;52.476;13.316;2023-11-19T04:36:58;7.37;;;5.70;;
6825;SDS011;3451;52.476;13.316;2023-11-19T04:39:38;9.90;;;6.33;;
6825;SDS011;3451;52.476;13.316;2023-11-19T04:42:05;7.80;;;5.27;;
6825;SDS011;3451;52.476;13.316;2023-11-19T04:44:32;9.47;;;5.50;;
6825;SDS011;3451;52.476;13.316;2023-11-19T04:46:59;9.97;;;5.53;;
6825;SDS011;3451;52.476;13.316;2023-11-19T04:49:25;7.93;;;5.13;;
6825;SDS011;3451;52.476;13.316;2023-11-19T04:51:53;8.60;;;5.87;;
6825;SDS011;3451;52.476;13.316;2023-11-19T04:54:19;8.07;;;5.47;;
6825;SDS011;3451;52.476;13.316;2023-11-19T04:56:46;7.20;;;5.33;;
6825;SDS011;3451;52.476;13.316;2023-11-19T04:59:13;8.53;;;5.60;;
6825;SDS011;3451;52.476;13.316;2023-11-19T05:01:39;7.30;;;5.77;;
6825;SDS011;3451;52.476;13.316;2023-11-19T05:04:07;9.00;;;5.60;;
6825;SDS011;3451;52.476;13.316;2023-11-19T05:06:34;6.87;;;5.30;;
6825;SDS011;3451;52.476;13.316;2023-11-19T05:09:01;7.77;;;5.53;;
6825;SDS011;3451;52.476;13.316;2023-11-19T05:11:32;7.80;;;5.50;;
6825;SDS011;3451;52.476;13.316;2023-11-19T05:13:58;7.07;;;5.40;;
6825;SDS011;3451;52.476;13.316;2023-11-19T05:16:24;11.07;;;5.80;;
6825;SDS011;3451;52.476;13.316;2023-11-19T05:18:51;7.93;;;5.13;;
6825;SDS011;3451;52.476;13.316;2023-11-19T05:21:17;8.60;;;5.47;;
6825;SDS011;3451;52.476;13.316;2023-11-19T05:23:44;7.37;;;5.43;;
6825;SDS011;3451;52.476;13.316;2023-11-19T05:26:16;9.10;;;5.53;;
6825;SDS011;3451;52.476;13.316;2023-11-19T05:28:43;6.47;;;5.07;;
6825;SDS011;3451;52.476;13.316;2023-11-19T05:31:09;7.50;;;5.20;;
6825;SDS011;3451;52.476;13.316;2023-11-19T05:33:36;7.90;;;5.33;;
6825;SDS011;3451;52.476;13.316;2023-11-19T05:36:03;6.73;;;4.90;;
6825;SDS011;3451;52.476;13.316;2023-11-19T05:38:30;7.70;;;4.53;;
6825;SDS011;3451;52.476;13.316;2023-11-19T05:40:56;6.50;;;4.83;;
6825;SDS011;3451;52.476;13.316;2023-11-19T05:43:23;7.17;;;5.10;;
6825;SDS011;3451;52.476;13.316;2023-11-19T05:45:49;6.50;;;5.03;;
6825;SDS011;3451;52.476;13.316;2023-11-19T05:48:15;7.60;;;5.30;;
6825;SDS011;3451;52.476;13.316;2023-11-19T05:50:43;7.93;;;4.83;;
6825;SDS011;3451;52.476;13.316;2023-11-19T05:53:09;9.33;;;5.03;;
6825;SDS011;3451;52.476;13.316;2023-11-19T05:55:36;7.03;;;5.07;;
6825;SDS011;3451;52.476;13.316;2023-11-19T05:58:11;7.07;;;5.30;;
6825;SDS011;3451;52.476;13.316;2023-11-19T06:00:38;7.33;;;5.40;;
6825;SDS011;3451;52.476;13.316;2023-11-19T06:03:09;7.07;;;4.53;;
6825;SDS011;3451;52.476;13.316;2023-11-19T06:05:35;6.63;;;4.93;;
6825;SDS011;3451;52.476;13.316;2023-11-19T06:08:02;6.73;;;5.10;;
6825;SDS011;3451;52.476;13.316;2023-11-19T06:10:29;6.80;;;5.20;;
6825;SDS011;3451;52.476;13.316;2023-11-19T06:12:58;8.10;;;4.97;;
6825;SDS011;3451;52.476;13.316;2023-11-19T06:15:26;7.50;;;5.27;;
6825;SDS011;3451;52.476;13.316;2023-11-19T06:17:53;6.93;;;5.07;;
6825;SDS011;3451;52.476;13.316;2023-11-19T06:20:20;6.27;;;4.73;;
6825;SDS011;3451;52.476;13.316;2023-11-19T06:22:47;8.93;;;5.30;;
6825;SDS011;3451;52.476;13.316;2023-11-19T06:25:13;5.90;;;4.77;;
6825;SDS011;3451;52.476;13.316;2023-11-19T06:27:41;7.03;;;4.87;;
6825;SDS011;3451;52.476;13.316;2023-11-19T06:30:08;7.20;;;5.23;;
6825;SDS011;3451;52.476;13.316;2023-11-19T06:32:35;6.90;;;5.10;;
6825;SDS011;3451;52.476;13.316;2023-11-19T06:35:01;6.27;;;4.93;;
6825;SDS011;3451;52.476;13.316;2023-11-19T06:37:27;7.90;;;5.03;;
6825;SDS011;3451;52.476;13.316;2023-11-19T06:39:54;5.87;;;4.87;;
6825;SDS011;3451;52.476;13.316;2023-11-19T06:42:20;7.00;;;4.67;;
6825;SDS011;3451;52.476;13.316;2023-11-19T06:44:46;9.30;;;4.90;;
6825;SDS011;3451;52.476;13.316;2023-11-19T06:47:13;6.13;;;4.87;;
6825;SDS011;3451;52.476;13.316;2023-11-19T06:49:39;6.57;;;4.63;;
6825;SDS011;3451;52.476;13.316;2023-11-19T06:52:05;6.87;;;4.93;;
6825;SDS011;3451;52.476;13.316;2023-11-19T06:54:32;7.57;;;4.63;;
6825;SDS011;3451;52.476;13.316;2023-11-19T06:56:58;5.47;;;4.43;;
6825;SDS011;3451;52.476;13.316;2023-11-19T06:59:24;6.70;;;5.00;;
6825;SDS011;3451;52.476;13.316;2023-11-19T07:01:50;7.13;;;4.50;;
6825;SDS011;3451;52.476;13.316;2023-11-19T07:04:17;4.87;;;4.13;;
6825;SDS011;3451;52.476;13.316;2023-11-19T07:06:43;6.07;;;4.70;;
6825;SDS011;3451;52.476;13.316;2023-11-19T07:09:09;6.03;;;4.23;;
6825;SDS011;3451;52.476;13.316;2023-11-19T07:11:39;6.30;;;4.20;;
6825;SDS011;3451;52.476;13.316;2023-11-19T07:14:06;5.30;;;4.13;;
6825;SDS011;3451;52.476;13.316;2023-11-19T07:16:33;5.77;;;4.37;;
6825;SDS011;3451;52.476;13.316;2023-11-19T07:19:03;7.90;;;4.30;;
6825;SDS011;3451;52.476;13.316;2023-11-19T07:21:30;6.03;;;4.43;;
6825;SDS011;3451;52.476;13.316;2023-11-19T07:23:56;6.10;;;4.73;;
6825;SDS011;3451;52.476;13.316;2023-11-19T07:26:22;5.77;;;4.50;;
6825;SDS011;3451;52.476;13.316;2023-11-19T07:28:49;6.67;;;4.70;;
6825;SDS011;3451;52.476;13.316;2023-11-19T07:31:16;5.10;;;3.83;;
6825;SDS011;3451;52.476;13.316;2023-11-19T07:33:42;5.10;;;4.27;;
6825;SDS011;3451;52.476;13.316;2023-11-19T07:36:09;5.50;;;4.30;;
6825;SDS011;3451;52.476;13.316;2023-11-19T07:38:36;7.40;;;4.20;;
6825;SDS011;3451;52.476;13.316;2023-11-19T07:41:03;4.57;;;3.90;;
6825;SDS011;3451;52.476;13.316;2023-11-19T07:43:29;5.57;;;4.40;;
6825;SDS011;3451;52.476;13.316;2023-11-19T07:45:56;7.13;;;4.63;;
6825;SDS011;3451;52.476;13.316;2023-11-19T07:48:22;5.27;;;4.07;;
6825;SDS011;3451;52.476;13.316;2023-11-19T07:50:49;6.60;;;4.50;;
6825;SDS011;3451;52.476;13.316;2023-11-19T07:53:16;6.33;;;4.27;;
6825;SDS011;3451;52.476;13.316;2023-11-19T07:55:43;6.07;;;4.63;;
6825;SDS011;3451;52.476;13.316;2023-11-19T07:58:10;6.40;;;4.57;;
6825;SDS011;3451;52.476;13.316;2023-11-19T08:00:37;5.73;;;4.60;;
6825;SDS011;3451;52.476;13.316;2023-11-19T08:03:03;6.37;;;4.60;;
6825;SDS011;3451;52.476;13.316;2023-11-19T08:05:30;5.40;;;4.30;;
6825;SDS011;3451;52.476;13.316;2023-11-19T08:07:57;5.50;;;4.23;;
6825;SDS011;3451;52.476;13.316;2023-11-19T08:10:24;5.17;;;4.53;;
6825;SDS011;3451;52.476;13.316;2023-11-19T08:12:50;5.67;;;4.87;;
6825;SDS011;3451;52.476;13.316;2023-11-19T08:15:17;6.60;;;4.30;;
6825;SDS011;3451;52.476;13.316;2023-11-19T08:17:57;4.53;;;4.00;;
6825;SDS011;3451;52.476;13.316;2023-11-19T08:20:24;7.07;;;4.57;;
6825;SDS011;3451;52.476;13.316;2023-11-19T08:22:50;6.13;;;4.43;;
6825;SDS011;3451;52.476;13.316;2023-11-19T08:25:16;5.53;;;4.37;;
6825;SDS011;3451;52.476;13.316;2023-11-19T08:27:42;6.97;;;4.70;;
6825;SDS011;3451;52.476;13.316;2023-11-19T08:30:09;7.60;;;4.80;;
6825;SDS011;3451;52.476;13.316;2023-11-19T08:32:36;7.70;;;4.50;;
6825;SDS011;3451;52.476;13.316;2023-11-19T08:35:03;5.40;;;4.17;;
6825;SDS011;3451;52.476;13.316;2023-11-19T08:37:29;4.97;;;3.83;;
6825;SDS011;3451;52.476;13.316;2023-11-19T08:39:56;5.27;;;4.37;;
6825;SDS011;3451;52.476;13.316;2023-11-19T08:42:22;5.47;;;4.40;;
6825;SDS011;3451;52.476;13.316;2023-11-19T08:44:48;6.10;;;4.60;;
6825;SDS011;3451;52.476;13.316;2023-11-19T08:47:16;5.10;;;4.20;;
6825;SDS011;3451;52.476;13.316;2023-11-19T08:49:44;6.17;;;4.23;;
6825;SDS011;3451;52.476;13.316;2023-11-19T08:52:10;4.80;;;3.83;;
6825;SDS011;3451;52.476;13.316;2023-11-19T08:54:37;6.50;;;4.30;;
6825;SDS011;3451;52.476;13.316;2023-11-19T08:57:03;5.13;;;4.00;;
6825;SDS011;3451;52.476;13.316;2023-11-19T08:59:30;7.63;;;5.50;;
6825;SDS011;3451;52.476;13.316;2023-11-19T09:01:56;9.93;;;6.10;;
6825;SDS011;3451;52.476;13.316;2023-11-19T09:04:23;8.57;;;6.63;;
6825;SDS011;3451;52.476;13.316;2023-11-19T09:06:49;9.37;;;6.37;;
6825;SDS011;3451;52.476;13.316;2023-11-19T09:09:16;8.83;;;5.77;;
6825;SDS011;3451;52.476;13.316;2023-11-19T09:11:42;6.33;;;4.90;;
6825;SDS011;3451;52.476;13.316;2023-11-19T09:14:09;5.70;;;3.90;;
6825;SDS011;3451;52.476;13.316;2023-11-19T09:16:35;6.47;;;4.67;;
6825;SDS011;3451;52.476;13.316;2023-11-19T09:19:01;6.90;;;4.43;;
6825;SDS011;3451;52.476;13.316;2023-11-19T09:21:32;6.50;;;4.17;;
6825;SDS011;3451;52.476;13.316;2023-11-19T09:24:00;6.43;;;4.93;;
6825;SDS011;3451;52.476;13.316;2023-11-19T09:26:26;7.13;;;4.73;;
6825;SDS011;3451;52.476;13.316;2023-11-19T09:28:53;8.63;;;5.03;;
6825;SDS011;3451;52.476;13.316;2023-11-19T09:31:19;9.10;;;4.67;;
6825;SDS011;3451;52.476;13.316;2023-11-19T09:33:45;5.07;;;3.43;;
6825;SDS011;3451;52.476;13.316;2023-11-19T09:36:12;5.40;;;3.80;;
6825;SDS011;3451;52.476;13.316;2023-11-19T09:38:40;6.93;;;3.90;;
6825;SDS011;3451;52.476;13.316;2023-11-19T09:41:06;8.20;;;3.57;;
6825;SDS011;3451;52.476;13.316;2023-11-19T09:43:36;5.33;;;3.50;;
6825;SDS011;3451;52.476;13.316;2023-11-19T09:46:05;7.27;;;4.70;;
6825;SDS011;3451;52.476;13.316;2023-11-19T09:48:33;5.47;;;3.53;;
6825;SDS011;3451;52.476;13.316;2023-11-19T09:51:01;7.03;;;4.60;;
6825;SDS011;3451;52.476;13.316;2023-11-19T09:53:28;6.07;;;4.40;;
6825;SDS011;3451;52.476;13.316;2023-11-19T09:55:55;5.73;;;3.80;;
6825;SDS011;3451;52.476;13.316;2023-11-19T09:58:21;6.23;;;3.83;;
6825;SDS011;3451;52.476;13.316;2023-11-19T10:00:49;12.13;;;6.50;;
6825;SDS011;3451;52.476;13.316;2023-11-19T10:03:35;9.97;;;3.73;;
6825;SDS011;3451;52.476;13.316;2023-11-19T10:06:06;5.63;;;3.47;;
6825;SDS011;3451;52.476;13.316;2023-11-19T10:08:39;6.93;;;3.20;;
6825;SDS011;3451;52.476;13.316;2023-11-19T10:11:06;6.77;;;4.13;;
6825;SDS011;3451;52.476;13.316;2023-11-19T10:13:34;3.60;;;1.80;;
6825;SDS011;3451;52.476;13.316;2023-11-19T10:16:04;2.37;;;1.50;;
6825;SDS011;3451;52.476;13.316;2023-11-19T10:18:30;2.90;;;1.37;;
6825;SDS011;3451;52.476;13.316;2023-11-19T10:20:56;5.97;;;1.90;;
6825;SDS011;3451;52.476;13.316;2023-11-19T10:23:23;6.27;;;1.73;;
6825;SDS011;3451;52.476;13.316;2023-11-19T10:25:49;4.67;;;1.57;;
6825;SDS011;3451;52.476;13.316;2023-11-19T10:28:18;3.90;;;1.80;;
6825;SDS011;3451;52.476;13.316;2023-11-19T10:30:45;4.23;;;1.87;;
6825;SDS011;3451;52.476;13.316;2023-11-19T10:33:14;6.80;;;2.10;;
6825;SDS011;3451;52.476;13.316;2023-11-19T10:38:28;19.27;;;7.90;;
6825;SDS011;3451;52.476;13.316;2023-11-19T10:40:54;8.87;;;2.40;;
6825;SDS011;3451;52.476;13.316;2023-11-19T10:43:21;7.23;;;2.43;;
6825;SDS011;3451;52.476;13.316;2023-11-19T10:45:50;7.67;;;1.87;;
6825;SDS011;3451;52.476;13.316;2023-11-19T10:48:16;3.87;;;2.03;;
6825;SDS011;3451;52.476;13.316;2023-11-19T10:50:44;7.63;;;2.20;;
6825;SDS011;3451;52.476;13.316;2023-11-19T10:53:11;6.10;;;2.27;;
6825;SDS011;3451;52.476;13.316;2023-11-19T10:55:41;9.10;;;4.17;;
6825;SDS011;3451;52.476;13.316;2023-11-19T10:58:10;7.43;;;3.30;;
6825;SDS011;3451;52.476;13.316;2023-11-19T11:00:38;8.53;;;2.70;;
6825;SDS011;3451;52.476;13.316;2023-11-19T11:03:12;7.97;;;2.27;;
6825;SDS011;3451;52.476;13.316;2023-11-19T11:05:41;9.03;;;3.33;;
6825;SDS011;3451;52.476;13.316;2023-11-19T11:08:08;7.17;;;2.43;;
6825;SDS011;3451;52.476;13.316;2023-11-19T11:10:38;7.07;;;2.30;;
6825;SDS011;3451;52.476;13.316;2023-11-19T11:13:22;9.03;;;2.53;;
6825;SDS011;3451;52.476;13.316;2023-11-19T11:15:54;9.03;;;3.63;;
6825;SDS011;3451;52.476;13.316;2023-11-19T11:18:22;13.90;;;3.87;;
6825;SDS011;3451;52.476;13.316;2023-11-19T11:20:52;8.40;;;2.80;;
6825;SDS011;3451;52.476;13.316;2023-11-19T11:23:25;7.63;;;2.30;;
6825;SDS011;3451;52.476;13.316;2023-11-19T11:28:39;6.27;;;2.47;;
6825;SDS011;3451;52.476;13.316;2023-11-19T11:34:06;10.70;;;2.80;;
6825;SDS011;3451;52.476;13.316;2023-11-19T11:39:21;7.70;;;2.60;;
6825;SDS011;3451;52.476;13.316;2023-11-19T11:42:02;14.67;;;2.83;;
6825;SDS011;3451;52.476;13.316;2023-11-19T11:47:19;14.93;;;3.30;;
6825;SDS011;3451;52.476;13.316;2023-11-19T11:49:45;13.50;;;3.63;;
6825;SDS011;3451;52.476;13.316;2023-11-19T11:52:12;10.70;;;3.00;;
6825;SDS011;3451;52.476;13.316;2023-11-19T11:54:42;13.30;;;3.10;;
6825;SDS011;3451;52.476;13.316;2023-11-19T11:59:47;10.43;;;3.20;;
6825;SDS011;3451;52.476;13.316;2023-11-19T12:02:17;11.57;;;3.07;;
6825;SDS011;3451;52.476;13.316;2023-11-19T12:04:48;11.97;;;3.13;;
6825;SDS011;3451;52.476;13.316;2023-11-19T12:07:17;14.93;;;3.50;;
6825;SDS011;3451;52.476;13.316;2023-11-19T12:09:53;33.00;;;4.53;;
6825;SDS011;3451;52.476;13.316;2023-11-19T12:12:22;8.77;;;2.97;;
6825;SDS011;3451;52.476;13.316;2023-11-19T12:17:36;15.40;;;6.70;;
6825;SDS011;3451;52.476;13.316;2023-11-19T12:20:03;15.23;;;5.37;;
6825;SDS011;3451;52.476;13.316;2023-11-19T12:22:31;15.43;;;3.93;;
6825;SDS011;3451;52.476;13.316;2023-11-19T12:24:57;9.00;;;2.90;;
6825;SDS011;3451;52.476;13.316;2023-11-19T12:27:25;12.50;;;3.87;;
6825;SDS011;3451;52.476;13.316;2023-11-19T12:29:52;10.43;;;2.90;;
6825;SDS011;3451;52.476;13.316;2023-11-19T12:32:19;13.03;;;3.13;;
6825;SDS011;3451;52.476;13.316;2023-11-19T12:34:45;11.70;;;3.40;;
6825;SDS011;3451;52.476;13.316;2023-11-19T12:37:11;9.67;;;3.17;;
6825;SDS011;3451;52.476;13.316;2023-11-19T12:39:38;12.67;;;3.37;;
6825;SDS011;3451;52.476;13.316;2023-11-19T12:42:04;13.73;;;3.70;;
6825;SDS011;3451;52.476;13.316;2023-11-19T12:44:31;13.27;;;3.73;;
6825;SDS011;3451;52.476;13.316;2023-11-19T12:47:04;20.80;;;4.10;;
6825;SDS011;3451;52.476;13.316;2023-11-19T12:49:33;14.13;;;3.93;;
6825;SDS011;3451;52.476;13.316;2023-11-19T12:51:59;8.40;;;2.93;;
6825;SDS011;3451;52.476;13.316;2023-11-19T12:54:35;17.83;;;4.30;;
6825;SDS011;3451;52.476;13.316;2023-11-19T12:57:03;19.30;;;4.00;;
6825;SDS011;3451;52.476;13.316;2023-11-19T12:59:31;14.47;;;3.70;;
6825;SDS011;3451;52.476;13.316;2023-11-19T13:01:57;17.63;;;4.07;;
6825;SDS011;3451;52.476;13.316;2023-11-19T13:04:27;18.10;;;4.30;;
6825;SDS011;3451;52.476;13.316;2023-11-19T13:06:54;15.33;;;3.70;;
6825;SDS011;3451;52.476;13.316;2023-11-19T13:09:26;19.13;;;4.90;;
6825;SDS011;3451;52.476;13.316;2023-11-19T13:11:53;12.17;;;3.23;;
6825;SDS011;3451;52.476;13.316;2023-11-19T13:14:20;21.83;;;4.27;;
6825;SDS011;3451;52.476;13.316;2023-11-19T13:16:46;22.03;;;4.73;;
6825;SDS011;3451;52.476;13.316;2023-11-19T13:19:13;20.53;;;4.63;;
6825;SDS011;3451;52.476;13.316;2023-11-19T13:21:39;24.27;;;4.40;;
6825;SDS011;3451;52.476;13.316;2023-11-19T13:24:06;16.57;;;4.27;;
6825;SDS011;3451;52.476;13.316;2023-11-19T13:26:33;19.30;;;6.30;;
6825;SDS011;3451;52.476;13.316;2023-11-19T13:28:59;35.50;;;13.43;;
6825;SDS011;3451;52.476;13.316;2023-11-19T13:31:25;18.27;;;4.57;;
6825;SDS011;3451;52.476;13.316;2023-11-19T13:33:52;18.00;;;4.03;;
6825;SDS011;3451;52.476;13.316;2023-11-19T13:36:18;19.27;;;4.43;;
6825;SDS011;3451;52.476;13.316;2023-11-19T13:38:45;16.03;;;3.90;;
6825;SDS011;3451;52.476;13.316;2023-11-19T13:41:13;13.47;;;4.23;;
6825;SDS011;3451;52.476;13.316;2023-11-19T13:43:40;16.67;;;4.00;;
6825;SDS011;3451;52.476;13.316;2023-11-19T13:46:06;17.73;;;4.00;;
6825;SDS011;3451;52.476;13.316;2023-11-19T13:48:35;22.47;;;4.20;;
6825;SDS011;3451;52.476;13.316;2023-11-19T13:51:01;18.70;;;4.00;;
6825;SDS011;3451;52.476;13.316;2023-11-19T13:53:28;20.53;;;4.17;;
6825;SDS011;3451;52.476;13.316;2023-11-19T13:55:54;20.53;;;4.30;;
6825;SDS011;3451;52.476;13.316;2023-11-19T13:58:20;20.53;;;4.93;;
6825;SDS011;3451;52.476;13.316;2023-11-19T14:00:47;19.63;;;3.90;;
6825;SDS011;3451;52.476;13.316;2023-11-19T14:03:14;17.00;;;3.90;;
6825;SDS011;3451;52.476;13.316;2023-11-19T14:05:40;12.33;;;3.80;;
6825;SDS011;3451;52.476;13.316;2023-11-19T14:08:08;15.20;;;3.97;;
6825;SDS011;3451;52.476;13.316;2023-11-19T14:10:50;18.73;;;4.73;;
6825;SDS011;3451;52.476;13.316;2023-11-19T14:13:17;19.33;;;4.10;;
6825;SDS011;3451;52.476;13.316;2023-11-19T14:15:43;18.43;;;4.20;;
6825;SDS011;3451;52.476;13.316;2023-11-19T14:18:12;19.00;;;4.90;;
6825;SDS011;3451;52.476;13.316;2023-11-19T14:20:39;20.87;;;5.00;;
6825;SDS011;3451;52.476;13.316;2023-11-19T14:23:05;18.93;;;4.50;;
6825;SDS011;3451;52.476;13.316;2023-11-19T14:25:31;17.60;;;4.50;;
6825;SDS011;3451;52.476;13.316;2023-11-19T14:27:58;26.37;;;5.00;;
6825;SDS011;3451;52.476;13.316;2023-11-19T14:30:24;17.90;;;4.07;;
6825;SDS011;3451;52.476;13.316;2023-11-19T14:32:51;19.90;;;3.87;;
6825;SDS011;3451;52.476;13.316;2023-11-19T14:35:17;19.27;;;4.63;;
6825;SDS011;3451;52.476;13.316;2023-11-19T14:37:43;16.43;;;3.93;;
6825;SDS011;3451;52.476;13.316;2023-11-19T14:40:10;19.20;;;4.67;;
6825;SDS011;3451;52.476;13.316;2023-11-19T14:42:37;18.13;;;3.97;;
6825;SDS011;3451;52.476;13.316;2023-11-19T14:45:05;21.97;;;4.67;;
6825;SDS011;3451;52.476;13.316;2023-11-19T14:47:32;22.30;;;3.77;;
6825;SDS011;3451;52.476;13.316;2023-11-19T14:49:58;20.80;;;5.90;;
6825;SDS011;3451;52.476;13.316;2023-11-19T14:52:24;19.13;;;6.27;;
6825;SDS011;3451;52.476;13.316;2023-11-19T14:54:51;20.13;;;5.50;;
6825;SDS011;3451;52.476;13.316;2023-11-19T14:57:20;18.47;;;4.00;;
6825;SDS011;3451;52.476;13.316;2023-11-19T14:59:46;19.70;;;4.50;;
6825;SDS011;3451;52.476;13.316;2023-11-19T15:02:12;21.70;;;5.47;;
6825;SDS011;3451;52.476;13.316;2023-11-19T15:04:39;19.40;;;4.80;;
6825;SDS011;3451;52.476;13.316;2023-11-19T15:07:07;20.40;;;4.30;;
6825;SDS011;3451;52.476;13.316;2023-11-19T15:09:34;21.40;;;4.43;;
6825;SDS011;3451;52.476;13.316;2023-11-19T15:12:03;27.00;;;4.43;;
6825;SDS011;3451;52.476;13.316;2023-11-19T15:14:30;27.40;;;5.20;;
6825;SDS011;3451;52.476;13.316;2023-11-19T15:16:57;20.43;;;4.37;;
6825;SDS011;3451;52.476;13.316;2023-11-19T15:19:24;19.47;;;4.90;;